Date,TemperatureHighF,TemperatureAvgF,TemperatureLowF,DewpointHighF,DewpointAvgF,DewpointLowF,HumidityHigh,HumidityAvg,HumidityLow,PressureMaxIn,PressureMinIn,WindSpeedMaxMPH,WindSpeedAvgMPH,GustSpeedMaxMPH,PrecipitationSumIn
2013-1-1,16.0,14.5,13.0,7.0,5.5,3.0,71,67,61,0.00,40.00,11,8,0,0.00
2013-1-2,23.0,18.2,15.0,16.0,12.9,9.0,83,79,73,0.00,40.00,8,6,0,0.00
2013-1-3,25.0,22.2,20.0,19.0,15.7,12.0,80,75,69,0.00,40.00,13,8,0,0.00
2013-1-4,27.0,20.8,16.0,19.0,14.5,11.0,82,76,68,0.00,40.00,19,14,0,0.00
2013-1-5,34.0,25.6,19.0,28.0,20.6,16.0,92,81,60,0.00,40.00,11,6,0,0.00
2013-1-6,31.0,26.4,19.0,25.0,19.3,14.0,83,74,61,0.00,40.00,12,7,0,0.00
2013-1-7,34.0,26.9,19.0,23.0,17.0,12.0,85,67,50,0.00,40.00,19,12,0,0.00
2013-1-8,37.0,32.8,27.0,34.0,27.2,23.0,86,79,66,0.00,40.00,14,8,0,0.00
2013-1-9,38.0,35.9,32.0,30.0,26.4,23.0,78,69,57,0.00,40.00,16,13,0,0.00
2013-1-10,38.0,32.3,26.0,33.0,26.4,21.0,84,78,64,0.00,40.00,7,4,0,0.06
2013-1-11,42.0,38.5,35.0,41.0,37.5,34.0,97,96,94,0.00,40.00,11,6,0,0.03
2013-1-12,45.0,37.9,28.0,42.0,32.7,20.0,97,82,71,0.00,40.00,18,13,0,0.01
2013-1-13,25.0,23.0,20.0,18.0,15.5,13.0,74,72,69,0.00,40.00,13,8,0,0.00
2013-1-14,22.0,15.8,11.0,9.0,6.9,5.0,78,68,53,0.00,40.00,12,10,0,0.00
2013-1-15,29.0,19.4,11.0,13.0,9.2,5.0,75,65,48,0.00,40.00,13,8,0,0.00
2013-1-16,30.0,25.6,21.0,23.0,16.1,12.0,76,67,55,0.00,40.00,16,11,0,0.00
2013-1-17,23.0,15.9,11.0,11.0,2.9,-4.0,68,57,38,0.00,40.00,15,9,0,0.00
2013-1-18,29.0,18.1,7.0,24.0,11.5,-3.0,84,75,57,0.00,40.00,16,5,0,0.01
2013-1-19,39.0,28.7,21.0,32.0,24.6,19.0,94,85,70,0.00,40.00,17,8,0,0.02
2013-1-20,17.0,10.7,8.0,8.0,-0.7,-5.0,68,60,51,0.00,40.00,25,14,0,0.00
2013-1-21,4.0,-1.2,-8.0,-6.0,-13.4,-22.0,66,55,43,0.00,40.00,18,14,0,0.00
2013-1-22,2.0,-3.3,-9.0,-11.0,-15.3,-19.0,64,55,43,0.00,40.00,13,10,0,0.00
2013-1-23,10.0,3.9,-3.0,6.0,-3.6,-12.0,82,70,61,0.00,40.00,15,10,0,0.00
2013-1-24,12.0,7.2,2.0,2.0,-2.2,-5.0,72,64,55,0.00,40.00,14,6,0,0.00
2013-1-25,18.0,14.0,8.0,14.0,10.9,5.0,91,86,75,0.00,40.00,8,5,0,0.00
2013-1-26,23.0,14.7,8.0,12.0,8.6,4.0,89,76,62,0.00,40.00,12,7,0,0.00
2013-1-27,34.0,28.2,21.0,31.0,23.6,15.0,97,83,73,0.00,40.00,12,8,0,0.02
2013-1-28,34.0,32.6,31.0,34.0,31.5,29.0,98,95,87,0.00,40.00,8,5,0,0.07
2013-1-29,41.0,36.2,33.0,40.0,35.3,31.0,97,96,91,0.00,40.00,10,6,0,0.09
2013-1-30,33.0,26.0,15.0,32.0,24.3,12.0,97,92,87,0.00,40.00,9,3,0,0.00
2013-1-31,15.0,12.2,10.0,7.0,5.4,4.0,78,74,65,0.00,40.00,12,8,0,0.00
2013-2-1,6.0,2.7,0.0,0.0,-5.1,-9.0,76,69,61,0.00,40.00,12,11,0,0.00
2013-2-2,13.0,5.2,0.0,-2.0,-5.6,-9.0,68,60,49,0.00,40.00,10,7,0,0.00
2013-2-3,15.0,8.5,5.0,3.0,0.2,-4.0,80,68,57,0.00,40.00,13,7,0,0.00
2013-2-4,17.0,8.0,3.0,0.0,-1.7,-4.0,78,64,43,0.00,40.00,8,4,0,0.00
2013-2-5,21.0,14.9,7.0,14.0,6.8,-3.0,89,70,58,0.00,40.00,12,8,0,0.00
2013-2-6,22.0,14.2,6.0,18.0,8.6,3.0,93,79,59,0.00,40.00,6,3,0,0.00
2013-2-7,32.0,26.8,18.0,31.0,25.5,16.0,97,95,91,0.00,40.00,7,3,0,0.02
2013-2-8,27.0,20.0,14.0,18.0,13.5,7.0,91,76,55,0.00,40.00,0,0,0,0.00
2013-2-9,29.0,18.7,6.0,24.0,14.8,4.0,92,84,76,0.00,40.00,9,4,0,0.00
2013-2-10,37.0,30.6,24.0,36.0,27.8,21.0,96,90,84,0.00,40.00,12,8,0,0.22
2013-2-11,39.0,34.7,29.0,38.0,30.6,19.0,97,86,67,0.00,40.00,18,14,0,0.01
2013-2-12,26.0,23.9,22.0,18.0,16.7,16.0,79,74,70,0.00,40.00,14,10,0,0.00
2013-2-13,33.0,27.8,20.0,26.0,22.4,17.0,87,80,70,0.00,40.00,8,6,0,0.00
2013-2-14,32.0,29.1,22.0,31.0,26.4,13.0,97,89,65,0.00,40.00,12,7,0,0.00
2013-2-15,20.0,16.4,11.0,14.0,8.1,4.0,81,69,60,0.00,40.00,11,8,0,0.00
2013-2-16,18.0,11.2,5.0,3.0,1.0,-2.0,79,63,45,0.00,40.00,9,7,0,0.00
2013-2-17,19.0,9.5,0.0,3.0,-0.5,-4.0,81,64,43,0.00,40.00,6,5,0,0.00
2013-2-18,37.0,32.5,22.0,34.0,26.8,15.0,94,79,68,0.00,40.00,14,10,0,0.02
2013-2-19,32.0,20.6,10.0,31.0,18.9,5.0,97,92,78,0.00,40.00,14,9,0,0.00
2013-2-20,21.0,13.6,7.0,9.0,5.2,2.0,76,68,57,0.00,40.00,17,12,0,0.00
2013-2-21,23.0,17.3,10.0,20.0,13.2,5.0,87,83,77,0.00,40.00,13,9,0,0.00
2013-2-22,28.0,26.1,24.0,27.0,23.0,18.0,95,88,75,0.00,40.00,13,8,0,0.00
2013-2-23,28.0,24.5,20.0,25.0,21.1,19.0,96,87,74,0.00,40.00,9,6,0,0.00
2013-2-24,33.0,27.0,21.0,25.0,20.7,18.0,93,78,64,0.00,40.00,10,6,0,0.03
2013-2-25,36.0,28.5,21.0,28.0,22.9,19.0,92,79,58,0.00,40.00,7,3,0,0.00
2013-2-26,33.0,30.1,28.0,27.0,25.3,24.0,94,82,69,0.00,40.00,15,7,0,0.00
2013-2-27,32.0,30.2,28.0,30.0,27.7,25.0,95,90,81,0.00,40.00,14,12,0,0.02
2013-2-28,31.0,28.6,25.0,30.0,25.2,20.0,94,85,77,0.00,40.00,13,12,0,0.00
2013-3-1,26.0,21.8,18.0,16.0,14.8,11.0,83,73,62,0.00,40.00,11,10,0,0.00
2013-3-2,28.0,17.7,8.0,15.0,10.1,5.0,87,72,54,0.00,40.00,10,7,0,0.00
2013-3-3,29.0,16.9,5.0,12.0,7.3,0.0,82,67,47,0.00,40.00,9,6,0,0.00
2013-3-4,29.0,18.8,6.0,18.0,12.7,4.0,91,78,55,0.00,40.00,7,4,0,0.00
2013-3-5,29.0,25.0,18.0,21.0,18.0,14.0,84,74,63,0.00,40.00,12,8,0,0.00
2013-3-6,34.0,29.6,26.0,28.0,24.9,21.0,89,82,75,0.00,40.00,7,6,0,0.00
2013-3-7,31.0,22.5,11.0,22.0,13.6,8.0,89,70,45,0.00,40.00,8,4,0,0.00
2013-3-8,35.0,27.7,18.0,27.0,21.2,14.0,91,76,61,0.00,40.00,8,4,0,0.00
2013-3-9,37.0,33.9,29.0,34.0,29.9,27.0,96,85,73,0.00,40.00,11,8,0,0.39
2013-3-10,36.0,36.0,36.0,33.0,33.0,33.0,90,90,90,0.00,40.00,9,9,0,0.00
2013-3-11,34.0,31.8,27.0,32.0,28.8,22.0,94,88,80,0.00,40.00,16,10,0,0.02
2013-3-12,28.0,24.9,19.0,24.0,18.5,12.0,90,75,68,0.00,40.00,14,10,0,0.00
2013-3-13,32.0,24.1,19.0,15.0,10.9,5.0,84,59,32,0.00,40.00,17,12,0,0.00
2013-3-14,34.0,26.0,18.0,23.0,13.2,9.0,77,60,37,0.00,40.00,12,7,0,0.00
2013-3-15,33.0,29.1,19.0,27.0,21.0,14.0,87,72,54,0.00,40.00,14,9,0,0.00
2013-3-16,28.0,21.7,18.0,16.0,12.6,8.0,89,69,45,0.00,40.00,12,7,0,0.03
2013-3-17,24.0,18.6,9.0,16.0,8.0,-2.0,75,62,50,0.00,40.00,11,6,0,0.00
2013-3-18,30.0,26.9,24.0,29.0,21.6,14.0,97,80,59,0.00,40.00,13,8,0,0.01
2013-3-19,29.0,21.7,16.0,24.0,13.6,8.0,94,72,53,0.00,40.00,17,14,0,0.00
2013-3-20,22.0,17.1,10.0,16.0,6.5,1.0,83,62,53,0.00,40.00,13,10,0,0.00
2013-3-21,29.0,21.4,16.0,14.0,12.4,10.0,81,68,50,0.00,40.00,15,11,0,0.00
2013-3-22,32.0,22.5,12.0,22.0,15.5,8.0,86,75,63,0.00,40.00,11,7,0,0.00
2013-3-23,34.0,29.1,25.0,23.0,21.1,20.0,81,72,58,0.00,40.00,9,5,0,0.00
2013-3-24,33.0,29.4,26.0,24.0,21.5,19.0,80,72,54,0.00,40.00,12,8,0,0.00
2013-3-25,37.0,29.9,24.0,24.0,22.3,21.0,87,74,51,0.00,40.00,11,9,0,0.00
2013-3-26,41.0,32.7,29.0,28.0,25.7,23.0,85,75,58,0.00,40.00,10,7,0,0.00
2013-3-27,43.0,33.9,26.0,23.0,20.5,19.0,79,59,39,0.00,40.00,11,7,0,0.00
2013-3-28,45.0,33.5,24.0,23.0,19.2,17.0,74,57,33,0.00,40.00,8,4,0,0.00
2013-3-29,45.0,35.7,28.0,23.0,20.3,17.0,79,56,33,0.00,40.00,5,3,0,0.00
2013-3-30,38.0,35.6,32.0,35.0,24.3,-99.9,96,70,51,0.00,40.00,12,7,0,0.21
2013-3-31,41.0,35.2,28.0,37.0,29.2,18.0,97,79,52,0.00,40.00,17,11,0,0.01
2013-4-1,31.0,26.1,21.0,18.0,13.0,8.0,73,57,42,0.00,40.00,14,10,0,0.00
2013-4-2,36.0,27.7,21.0,14.0,11.7,8.0,69,51,35,0.00,40.00,11,7,0,0.00
2013-4-3,36.0,27.5,20.0,21.0,13.5,9.0,77,56,32,0.00,40.00,9,6,0,0.00
2013-4-4,46.0,37.1,30.0,31.0,24.0,19.0,76,59,47,0.00,40.00,14,9,0,0.00
2013-4-5,34.0,31.5,27.0,25.0,20.7,16.0,77,64,46,0.00,40.00,8,5,0,0.00
2013-4-6,41.0,35.7,30.0,37.0,29.0,22.0,93,77,64,0.00,40.00,13,8,0,0.09
2013-4-7,44.0,37.8,34.0,43.0,32.5,30.0,96,81,59,0.00,40.00,14,9,0,0.07
2013-4-8,36.0,34.9,33.0,35.0,32.8,31.0,96,91,84,0.00,40.00,9,6,0,0.10
2013-4-9,37.0,34.3,31.0,35.0,32.6,25.0,97,93,80,0.00,40.00,12,7,0,0.23
2013-4-10,37.0,33.7,30.0,30.0,27.6,22.0,95,78,58,0.00,40.00,10,8,0,0.37
2013-4-11,35.0,32.3,29.0,29.0,26.2,22.0,97,78,64,0.00,40.00,18,10,0,0.03
2013-4-12,35.0,30.8,28.0,33.0,29.7,27.0,97,95,85,0.00,40.00,6,2,0,0.19
2013-4-13,36.0,31.1,27.0,30.0,26.9,24.0,97,85,62,0.00,40.00,11,6,0,0.04
2013-4-14,38.0,31.6,23.0,31.0,25.4,21.0,93,78,57,0.00,40.00,12,7,0,0.02
2013-4-15,54.0,43.9,37.0,44.0,36.5,27.0,95,76,49,0.00,40.00,14,9,0,0.15
2013-4-16,50.0,40.8,34.0,31.0,28.2,26.0,75,62,38,0.00,40.00,16,8,0,0.00
2013-4-17,39.0,35.7,30.0,34.0,30.7,27.0,92,82,72,0.00,40.00,11,6,0,0.01
2013-4-18,42.0,37.5,35.0,40.0,36.5,34.0,97,96,93,0.00,40.00,11,8,0,0.25
2013-4-19,45.0,35.3,26.0,45.0,27.8,14.0,97,74,51,0.00,40.00,19,16,0,0.00
2013-4-20,39.0,29.0,23.0,23.0,15.8,9.0,80,59,29,0.00,40.00,16,9,0,0.00
2013-4-21,40.0,34.8,28.0,31.0,25.3,21.0,85,69,48,0.00,40.00,14,8,0,0.00
2013-4-22,51.0,41.8,38.0,37.0,33.7,28.0,89,73,48,0.00,40.00,14,9,0,0.04
2013-4-23,44.0,39.8,34.0,42.0,33.8,29.0,94,79,67,0.00,40.00,12,6,0,0.03
2013-4-24,49.0,38.5,30.0,31.0,25.3,19.0,88,62,30,0.00,40.00,9,6,0,0.00
2013-4-25,49.0,42.8,35.0,33.0,28.3,24.0,86,58,37,0.00,40.00,18,10,0,0.00
2013-4-26,52.0,43.0,33.0,45.0,33.3,26.0,84,68,56,0.00,40.00,20,10,0,0.04
2013-4-27,63.0,53.4,43.0,49.0,43.5,34.0,92,70,47,0.00,40.00,13,7,0,0.00
2013-4-28,66.0,52.9,41.0,40.0,37.3,35.0,84,58,34,0.00,40.00,8,4,0,0.00
2013-4-29,55.0,46.5,42.0,51.0,44.3,40.0,95,92,86,0.00,40.00,6,3,0,0.11
2013-4-30,59.0,55.1,48.0,52.0,48.4,45.0,88,78,71,0.00,40.00,20,13,0,0.00
2013-5-1,66.0,58.1,42.0,50.0,45.4,32.0,85,63,44,0.00,40.00,13,8,0,0.00
2013-5-2,49.0,40.5,35.0,37.0,33.3,31.0,87,75,62,0.00,40.00,14,12,0,0.01
2013-5-3,49.0,40.3,34.0,39.0,35.6,32.0,92,83,69,0.00,40.00,10,9,0,0.04
2013-5-4,70.0,54.1,39.0,46.0,41.0,36.0,90,64,34,0.00,40.00,9,6,0,0.00
2013-5-5,70.0,52.8,39.0,42.0,37.5,33.0,89,60,29,0.00,40.00,8,4,0,0.00
2013-5-6,72.0,55.9,39.0,45.0,39.4,35.0,87,57,29,0.00,40.00,6,3,0,0.00
2013-5-7,73.0,58.2,47.0,43.0,37.5,33.0,67,48,23,0.00,40.00,7,4,0,0.00
2013-5-8,71.0,61.0,47.0,41.0,33.9,26.0,63,37,22,0.00,40.00,7,4,0,0.00
2013-5-9,63.0,52.9,38.0,45.0,38.2,30.0,90,59,32,0.00,40.00,13,6,0,0.13
2013-5-10,46.0,38.5,36.0,38.0,33.4,-99.9,93,86,73,0.00,40.00,13,8,0,0.24
2013-5-11,46.0,38.5,33.0,40.0,31.3,-99.9,96,81,48,0.00,40.00,16,9,0,0.25
2013-5-12,44.0,38.0,34.0,28.0,24.3,20.0,75,58,39,0.00,40.00,17,12,0,0.00
2013-5-13,50.0,39.3,30.0,30.0,24.7,19.0,86,58,33,0.00,40.00,11,7,0,0.01
2013-5-14,59.0,48.9,41.0,44.0,37.4,30.0,77,65,49,0.00,40.00,11,7,0,0.00
2013-5-15,75.0,61.6,47.0,46.0,41.2,33.0,82,52,21,0.00,40.00,14,10,0,0.00
2013-5-16,62.0,50.0,51.0,41.0,18.9,-99.9,61,50,41,0.00,40.00,9,6,0,0.00
2013-5-17,56.0,47.5,43.0,43.0,32.1,-99.9,80,72,61,0.00,40.00,8,4,0,0.00
2013-5-18,64.0,54.7,50.0,46.0,43.8,42.0,77,67,51,0.00,40.00,7,4,0,0.00
2013-5-19,74.0,61.7,49.0,61.0,52.6,43.0,91,72,59,0.00,40.00,10,5,0,0.00
2013-5-20,72.0,60.4,50.0,62.0,54.5,48.0,96,82,56,0.00,40.00,8,5,0,0.35
2013-5-21,64.0,57.3,51.0,58.0,53.9,47.0,96,88,81,0.00,40.00,10,4,0,0.01
2013-5-22,54.0,51.6,48.0,53.0,50.4,47.0,97,95,91,0.00,40.00,8,5,0,0.06
2013-5-23,49.0,44.6,40.0,48.0,36.0,29.0,95,73,52,0.00,40.00,13,11,0,0.17
2013-5-24,53.0,44.8,36.0,39.0,34.4,30.0,86,67,50,0.00,40.00,7,4,0,0.00
2013-5-25,58.0,49.3,38.0,38.0,33.3,28.0,82,56,32,0.00,40.00,6,4,0,0.00
2013-5-26,61.0,52.5,41.0,37.0,32.8,29.0,80,48,35,0.00,40.00,6,3,0,0.00
2013-5-27,63.0,53.8,44.0,42.0,37.8,31.0,74,55,41,0.00,40.00,8,4,0,0.00
2013-5-28,55.0,51.7,49.0,53.0,48.3,40.0,96,88,62,0.00,40.00,5,3,0,0.03
2013-5-29,62.0,56.7,49.0,58.0,54.0,48.0,97,91,78,0.00,40.00,8,5,0,0.00
2013-5-30,70.0,63.4,56.0,62.0,58.0,54.0,95,82,71,0.00,40.00,14,8,0,0.00
2013-5-31,67.0,58.3,52.0,60.0,55.1,51.0,95,89,77,0.00,40.00,11,8,0,0.03
2013-6-1,73.0,60.3,53.0,63.0,54.5,-99.9,94,86,69,0.00,40.00,6,3,0,0.16
2013-6-2,58.0,47.6,40.0,49.0,41.2,38.0,94,79,52,0.00,40.00,10,7,0,0.24
2013-6-3,65.0,50.1,39.0,47.0,40.9,37.0,94,73,40,0.00,40.00,7,4,0,0.00
2013-6-4,55.0,49.0,43.0,43.0,37.0,29.0,94,66,39,0.00,40.00,6,2,0,0.00
2013-6-5,55.0,50.2,46.0,47.0,44.1,37.0,87,79,69,0.00,40.00,6,4,0,0.01
2013-6-6,59.0,52.4,48.0,47.0,43.1,40.0,86,71,52,0.00,40.00,6,4,0,0.02
2013-6-7,71.0,58.5,50.0,44.0,42.0,39.0,77,57,30,0.00,40.00,7,4,0,0.00
2013-6-8,71.0,58.3,46.0,49.0,43.8,41.0,84,61,34,0.00,40.00,6,2,0,0.00
2013-6-9,67.0,58.8,49.0,55.0,50.1,43.0,86,73,61,0.00,40.00,7,4,0,0.00
2013-6-10,72.0,62.8,56.0,59.0,54.5,50.0,92,74,62,0.00,40.00,7,4,0,0.00
2013-6-11,79.0,62.8,52.0,61.0,55.9,51.0,96,81,49,0.00,40.00,10,3,0,0.00
2013-6-12,74.0,64.0,54.0,59.0,52.1,47.0,95,68,39,0.00,40.00,5,3,0,0.00
2013-6-13,69.0,62.6,57.0,52.0,50.2,48.0,76,64,51,0.00,40.00,9,6,0,0.00
2013-6-14,68.0,59.3,50.0,47.0,41.6,31.0,81,54,26,0.00,40.00,6,4,0,0.00
2013-6-15,64.0,58.2,53.0,59.0,48.2,36.0,95,70,45,0.00,40.00,5,3,0,0.87
2013-6-16,81.0,68.3,60.0,62.0,57.4,51.0,96,72,36,0.00,40.00,11,8,0,0.05
2013-6-17,65.0,60.3,53.0,56.0,53.7,47.0,93,79,66,0.00,40.00,8,4,0,0.13
2013-6-18,67.0,57.3,47.0,47.0,42.0,33.0,86,60,28,0.00,40.00,8,4,0,0.00
2013-6-19,68.0,60.2,48.0,48.0,42.0,34.0,88,52,40,0.00,40.00,9,5,0,0.00
2013-6-20,75.0,64.6,57.0,57.0,45.8,38.0,56,51,45,0.00,40.00,10,4,0,0.00
2013-6-22,71.0,62.9,58.0,62.0,58.6,56.0,95,86,72,0.00,40.00,8,4,0,0.00
2013-6-23,72.0,63.4,56.0,63.0,60.3,55.0,96,90,72,0.00,40.00,7,4,0,0.05
2013-6-25,78.0,72.5,64.0,67.0,65.2,62.0,93,78,64,0.00,40.00,10,5,0,0.00
2013-6-26,76.0,68.4,61.0,66.0,62.3,60.0,95,82,67,0.00,40.00,7,3,0,0.00
2013-6-27,76.0,66.6,62.0,66.0,61.9,58.0,92,85,73,0.00,40.00,6,3,0,0.20
2013-6-28,74.0,66.0,59.0,63.0,60.3,57.0,95,82,63,0.00,40.00,5,4,0,0.01
2013-6-29,72.0,64.8,60.0,59.0,55.5,47.0,90,73,54,0.00,40.00,8,5,0,0.00
2013-6-30,77.0,67.1,58.0,50.0,45.6,40.0,68,48,28,0.00,40.00,7,4,0,0.00
2013-7-1,77.0,66.4,55.0,57.0,48.9,42.0,67,54,42,0.00,40.00,7,3,0,0.00
2013-7-2,72.0,64.0,52.0,53.0,44.5,36.0,84,52,27,0.00,40.00,7,3,0,0.00
2013-7-3,74.0,65.5,59.0,57.0,50.9,47.0,88,60,38,0.00,40.00,6,2,0,0.00
2013-7-4,74.0,67.5,61.0,63.0,58.4,54.0,89,73,54,0.00,40.00,12,5,0,0.00
2013-7-5,81.0,72.0,61.0,64.0,59.2,54.0,91,65,46,0.00,40.00,11,6,0,0.00
2013-7-6,84.0,71.0,62.0,64.0,58.8,56.0,82,65,48,0.00,40.00,11,5,0,0.00
2013-7-7,82.0,73.5,64.0,69.0,64.6,60.0,86,74,62,0.00,40.00,7,3,0,0.00
2013-7-8,78.0,67.1,61.0,67.0,63.9,59.0,95,90,64,0.00,40.00,7,4,0,1.80
2013-7-9,71.0,66.0,63.0,66.0,63.8,62.0,96,92,83,0.00,40.00,6,4,0,0.67
2013-7-10,75.0,67.8,61.0,68.0,54.1,-99.9,94,68,48,0.00,40.00,14,8,0,0.00
2013-7-11,74.0,66.4,59.0,58.0,54.6,50.0,85,66,43,0.00,40.00,6,4,0,0.00
2013-7-12,78.0,68.0,56.0,59.0,51.1,42.0,79,56,37,0.00,40.00,5,3,0,0.00
2013-7-13,79.0,70.4,61.0,65.0,58.8,52.0,93,68,48,0.00,40.00,9,4,0,0.00
2013-7-14,83.0,72.0,62.0,66.0,61.9,54.0,91,72,52,0.00,40.00,6,2,0,0.00
2013-7-15,85.0,74.7,66.0,68.0,64.4,61.0,93,72,47,0.00,40.00,6,2,0,0.00
2013-7-16,86.0,77.3,70.0,74.0,68.7,63.0,89,75,59,0.00,40.00,7,3,0,0.00
2013-7-17,89.0,80.4,74.0,72.0,71.3,70.0,88,74,53,0.00,40.00,8,5,0,0.09
2013-7-18,91.0,84.0,77.0,72.0,69.9,68.0,79,63,50,0.00,40.00,13,8,0,0.00
2013-7-19,87.0,80.6,69.0,70.0,67.2,64.0,85,64,48,0.00,40.00,14,10,0,0.04
2013-7-20,72.0,65.8,57.0,63.0,50.1,-99.9,88,60,42,0.00,40.00,7,4,0,0.00
2013-7-21,66.0,60.1,53.0,55.0,51.8,45.0,87,74,63,0.00,40.00,5,3,0,0.01
2013-7-22,77.0,68.1,57.0,67.0,62.4,55.0,95,83,68,0.00,40.00,11,5,0,0.01
2013-7-23,72.0,63.9,55.0,66.0,50.1,43.0,79,61,45,0.00,40.00,9,6,0,0.00
2013-7-24,70.0,61.6,50.0,53.0,48.2,43.0,84,63,38,0.00,40.00,7,3,0,0.00
2013-7-25,73.0,65.9,57.0,59.0,54.1,50.0,83,66,50,0.00,40.00,12,7,0,0.00
2013-7-26,70.0,63.5,58.0,63.0,59.6,56.0,94,87,75,0.00,40.00,9,4,0,2.18
2013-7-27,60.0,54.9,51.0,54.0,47.2,45.0,90,75,59,0.00,40.00,8,6,0,0.00
2013-7-28,56.0,54.1,51.0,53.0,50.5,48.0,92,87,76,0.00,40.00,10,7,0,0.50
2013-7-29,69.0,58.4,52.0,57.0,51.8,49.0,88,78,59,0.00,40.00,8,4,0,0.00
2013-7-30,70.0,62.5,52.0,60.0,53.6,50.0,93,73,57,0.00,40.00,6,3,0,0.00
2013-7-31,72.0,66.2,60.0,64.0,59.3,52.0,90,78,67,0.00,40.00,7,4,0,0.00
2013-8-1,73.0,65.4,58.0,59.0,55.3,52.0,89,71,47,0.00,40.00,8,4,0,0.02
2013-8-2,75.0,68.8,62.0,56.0,54.0,51.0,78,60,46,0.00,40.00,7,4,0,0.01
2013-8-3,73.0,64.0,56.0,57.0,53.1,51.0,88,69,46,0.00,40.00,8,4,0,0.00
2013-8-4,68.0,61.1,54.0,53.0,51.1,48.0,88,70,53,0.00,40.00,5,3,0,0.00
2013-8-5,66.0,60.6,54.0,61.0,53.5,46.0,91,78,61,0.00,40.00,8,4,0,0.02
2013-8-6,74.0,66.9,61.0,65.0,62.1,58.0,94,84,73,0.00,40.00,6,4,0,0.00
2013-8-7,74.0,65.8,60.0,64.0,59.4,56.0,94,81,58,0.00,40.00,11,5,0,0.85
2013-8-8,73.0,63.1,50.0,58.0,52.0,48.0,92,69,45,0.00,40.00,6,4,0,0.00
2013-8-9,74.0,65.6,56.0,59.0,51.6,47.0,77,61,40,0.00,40.00,12,5,0,0.00
2013-8-10,72.0,64.5,56.0,59.0,55.3,51.0,92,73,49,0.00,40.00,6,3,0,0.00
2013-8-11,74.0,64.7,58.0,58.0,55.9,52.0,91,75,47,0.00,40.00,6,3,0,0.00
2013-8-12,74.0,62.7,54.0,63.0,57.0,44.0,95,83,58,0.00,40.00,7,4,0,0.01
2013-8-13,65.0,56.3,51.0,51.0,44.3,-99.9,85,66,48,0.00,40.00,7,4,0,0.01
2013-8-14,67.0,56.8,46.0,51.0,46.3,42.0,92,70,46,0.00,40.00,6,4,0,0.00
2013-8-15,76.0,59.6,52.0,57.0,44.3,-99.9,92,67,40,0.00,40.00,6,4,0,0.00
2013-8-16,77.0,65.3,57.0,60.0,49.6,-99.9,93,64,44,0.00,40.00,5,2,0,0.00
2013-8-17,79.0,67.3,55.0,60.0,49.0,-99.9,78,55,33,0.00,40.00,9,4,0,0.00
2013-8-18,78.0,67.8,57.0,61.0,53.5,43.0,83,60,48,0.00,40.00,7,4,0,0.00
2013-8-19,80.0,66.5,61.0,61.0,50.5,-99.9,87,66,43,0.00,40.00,11,5,0,0.00
2013-8-20,82.0,73.3,65.0,65.0,62.3,59.0,85,69,54,0.00,40.00,11,6,0,0.00
2013-8-21,83.0,73.8,65.0,68.0,64.5,62.0,93,74,60,0.00,40.00,10,6,0,0.42
2013-8-22,78.0,69.2,62.0,66.0,58.6,52.0,95,72,41,0.00,40.00,5,3,0,0.01
2013-8-23,73.0,65.2,55.0,59.0,55.6,51.0,94,72,54,0.00,40.00,6,2,0,0.00
2013-8-24,77.0,66.5,59.0,62.0,56.0,-99.9,95,73,52,0.00,40.00,8,4,0,0.00
2013-8-25,89.0,77.5,67.0,69.0,64.8,60.0,79,66,51,0.00,40.00,14,10,0,0.00
2013-8-26,83.0,75.5,70.0,69.0,66.0,64.0,89,72,61,0.00,40.00,13,6,0,0.26
2013-8-27,73.0,69.9,68.0,69.0,66.9,65.0,94,90,84,0.00,40.00,6,4,0,0.93
2013-8-28,85.0,77.9,69.0,67.0,65.6,62.0,86,67,47,0.00,40.00,6,3,0,0.00
2013-8-29,82.0,72.7,65.0,69.0,65.7,62.0,94,79,62,0.00,40.00,5,2,0,0.00
2013-8-30,79.0,72.7,65.0,71.0,64.5,61.0,86,75,60,0.00,40.00,11,7,0,0.11
2013-8-31,74.0,65.8,61.0,64.0,60.1,-99.9,94,84,72,0.00,40.00,4,2,0,0.00
2013-9-1,77.0,67.9,62.0,66.0,62.6,58.0,95,84,61,0.00,40.00,8,4,0,0.00
2013-9-2,63.0,59.0,56.0,58.0,50.3,47.0,89,73,61,0.00,40.00,9,7,0,0.00
2013-9-3,71.0,61.1,51.0,54.0,51.1,49.0,93,71,48,0.00,40.00,9,6,0,0.00
2013-9-4,68.0,62.4,54.0,57.0,53.4,45.0,83,72,61,0.00,40.00,8,5,0,0.00
2013-9-5,64.0,56.8,49.0,47.0,45.1,41.0,81,65,52,0.00,40.00,5,3,0,0.00
2013-9-6,72.0,64.0,53.0,63.0,54.2,46.0,85,71,54,0.00,40.00,10,6,0,0.00
2013-9-7,83.0,70.7,63.0,67.0,60.8,-99.9,86,74,59,0.00,40.00,8,5,0,0.00
2013-9-8,68.0,62.0,55.0,57.0,52.9,49.0,91,73,50,0.00,40.00,8,4,0,0.00
2013-9-9,69.0,65.4,61.0,67.0,62.1,57.0,94,89,82,0.00,40.00,8,5,0,0.02
2013-9-10,86.0,80.2,72.0,69.0,65.4,62.0,84,61,52,0.00,40.00,12,9,0,0.00
2013-9-11,79.0,73.4,67.0,65.0,62.4,57.0,87,69,56,0.00,40.00,9,6,0,0.00
2013-9-12,66.0,60.0,52.0,57.0,51.2,42.0,84,73,58,0.00,40.00,8,5,0,0.00
2013-9-13,61.0,53.0,45.0,44.0,40.2,37.0,89,62,45,0.00,40.00,6,4,0,0.00
2013-9-14,67.0,55.5,44.0,51.0,43.3,-99.9,89,67,44,0.00,40.00,10,5,0,0.00
2013-9-15,61.0,55.6,47.0,53.0,47.9,39.0,92,76,64,0.00,40.00,7,4,0,0.01
2013-9-16,57.0,49.7,43.0,41.0,39.3,37.0,80,68,53,0.00,40.00,7,3,0,0.00
2013-9-17,61.0,53.8,41.0,51.0,46.7,36.0,91,77,67,0.00,40.00,7,3,0,0.00
2013-9-18,65.0,59.0,57.0,62.0,55.0,50.0,91,87,78,0.00,40.00,5,3,0,0.02
2013-9-19,76.0,66.8,64.0,68.0,63.9,62.0,94,90,75,0.00,40.00,8,5,0,0.01
2013-9-20,71.0,67.1,59.0,65.0,60.3,49.0,92,79,62,0.00,40.00,10,7,0,0.00
2013-9-21,58.0,52.7,48.0,48.0,41.0,-99.9,84,67,53,0.00,40.00,10,7,0,0.00
2013-9-22,52.0,48.7,45.0,42.0,39.3,36.0,81,70,60,0.00,40.00,4,2,0,0.00
2013-9-23,58.0,50.4,43.0,45.0,43.4,40.0,93,77,62,0.00,40.00,7,3,0,0.00
2013-9-24,64.0,54.7,46.0,55.0,49.9,44.0,95,84,68,0.00,40.00,6,2,0,0.00
2013-9-25,65.0,54.8,46.0,56.0,50.6,45.0,95,86,63,0.00,40.00,5,2,0,0.00
2013-9-26,68.0,58.0,48.0,57.0,51.4,47.0,95,81,52,0.00,40.00,7,3,0,0.00
2013-9-27,71.0,62.2,53.0,59.0,54.5,47.0,95,77,56,0.00,40.00,8,4,0,0.00
2013-9-28,68.0,61.7,56.0,59.0,53.7,-99.9,93,78,64,0.00,40.00,13,7,0,0.16
2013-9-29,67.0,57.1,50.0,55.0,48.5,42.0,92,74,46,0.00,40.00,9,5,0,0.00
2013-9-30,66.0,57.0,48.0,54.0,46.2,40.0,85,68,48,0.00,40.00,11,6,0,0.00
2013-10-1,72.0,69.5,66.0,54.0,50.8,45.0,54,51,47,0.00,40.00,8,8,0,0.00
2013-10-2,72.0,58.4,49.0,52.0,42.0,29.0,91,58,20,0.00,40.00,8,4,0,0.00
2013-10-3,69.0,58.5,51.0,56.0,52.4,49.0,93,81,63,0.00,40.00,6,3,0,0.01
2013-10-4,59.0,57.0,56.0,56.0,55.2,54.0,94,93,91,0.00,40.00,8,5,0,0.69
2013-10-5,61.0,58.5,57.0,60.0,56.8,55.0,95,94,90,0.00,40.00,10,7,0,1.13
2013-10-6,62.0,58.3,51.0,61.0,51.3,41.0,95,79,50,0.00,40.00,9,6,0,0.21
2013-10-7,63.0,53.4,45.0,48.0,43.3,40.0,90,70,43,0.00,40.00,10,6,0,0.04
2013-10-8,65.0,54.8,43.0,55.0,47.3,40.0,90,77,58,0.00,40.00,11,4,0,0.00
2013-10-9,68.0,61.8,55.0,54.0,51.1,48.0,84,68,59,0.00,40.00,9,6,0,0.00
2013-10-10,67.0,56.6,48.0,57.0,52.2,46.0,95,85,65,0.00,40.00,6,2,0,0.00
2013-10-11,65.0,59.4,52.0,58.0,52.4,48.0,96,79,55,0.00,40.00,8,4,0,0.00
2013-10-12,65.0,59.1,54.0,58.0,51.4,-99.9,93,79,61,0.00,40.00,11,8,0,0.09
2013-10-13,56.0,51.0,42.0,43.0,40.0,38.0,87,67,52,0.00,40.00,12,6,0,0.00
2013-10-14,56.0,47.8,39.0,44.0,40.6,36.0,92,76,60,0.00,40.00,5,3,0,0.00
2013-10-15,55.0,53.3,51.0,54.0,49.5,44.0,94,87,73,0.00,40.00,10,5,0,0.42
2013-10-16,53.0,49.0,46.0,49.0,43.6,37.0,93,81,70,0.00,40.00,11,7,0,0.13
2013-10-17,50.0,43.2,36.0,38.0,35.1,32.0,88,73,55,0.00,40.00,5,2,0,0.00
2013-10-18,52.0,45.8,41.0,44.0,41.6,37.0,92,85,71,0.00,40.00,7,4,0,0.31
2013-10-19,52.0,43.2,35.0,39.0,32.3,-99.9,90,69,38,0.00,40.00,9,5,0,0.00
2013-10-20,47.0,42.5,38.0,42.0,35.9,32.0,94,78,59,0.00,40.00,6,4,0,0.12
2013-10-21,45.0,39.8,35.0,43.0,30.6,19.0,92,70,49,0.00,40.00,14,10,0,0.09
2013-10-22,45.0,39.5,35.0,32.0,28.5,24.0,77,65,52,0.00,40.00,16,11,0,0.00
2013-10-23,42.0,37.0,33.0,29.0,25.4,23.0,79,63,45,0.00,40.00,11,8,0,0.00
2013-10-24,44.0,38.1,34.0,30.0,27.8,25.0,75,66,46,0.00,40.00,12,10,0,0.00
2013-10-25,48.0,39.3,30.0,31.0,27.6,23.0,90,64,44,0.00,40.00,17,9,0,0.00
2013-10-26,49.0,44.3,39.0,36.0,27.1,-99.9,63,52,45,0.00,40.00,18,12,0,0.00
2013-10-27,48.0,42.4,37.0,32.0,28.8,24.0,71,58,48,0.00,40.00,13,6,0,0.00
2013-10-28,43.0,35.2,30.0,32.0,22.8,-99.9,77,64,45,0.00,40.00,9,6,0,0.00
2013-10-29,42.0,35.6,29.0,34.0,29.0,23.0,87,77,69,0.00,40.00,4,3,0,0.00
2013-10-30,52.0,46.6,41.0,50.0,43.5,36.0,94,89,78,0.00,40.00,7,4,0,0.21
2013-10-31,55.0,52.4,51.0,54.0,51.3,50.0,96,96,95,0.00,40.00,9,3,0,0.72
2013-11-1,52.0,46.8,43.0,51.0,42.1,38.0,96,83,74,0.00,40.00,13,8,0,0.68
2013-11-2,42.0,38.9,34.0,38.0,31.9,-99.9,90,79,66,0.00,40.00,6,4,0,0.02
2013-11-4,49.0,48.3,47.0,42.0,40.4,39.0,82,74,69,0.00,40.00,12,10,0,0.00
2013-11-5,54.0,47.8,41.0,48.0,41.1,34.0,95,79,51,0.00,40.00,9,5,0,0.91
2013-11-6,49.0,41.2,34.0,47.0,37.0,23.0,95,85,63,0.00,40.00,13,9,0,0.40
2013-11-7,38.0,35.0,33.0,26.0,23.9,22.0,74,63,57,0.00,40.00,13,10,0,0.00
2013-11-8,44.0,37.4,33.0,37.0,26.2,20.0,76,64,48,0.00,40.00,11,7,0,0.00
2013-11-9,45.0,42.1,40.0,41.0,33.5,-99.9,89,74,61,0.00,40.00,19,13,0,0.48
2013-11-10,43.0,40.0,38.0,30.0,28.5,26.0,71,63,51,0.00,40.00,19,11,0,0.01
2013-11-11,40.0,33.7,28.0,33.0,22.0,10.0,80,63,42,0.00,40.00,14,11,0,0.01
2013-11-12,29.0,27.2,25.0,12.0,11.2,10.0,58,51,46,0.00,40.00,10,9,0,0.00
2013-11-13,27.0,25.7,25.0,19.0,16.0,13.0,71,66,59,0.00,40.00,13,11,0,0.00
2013-11-14,42.0,39.6,37.0,33.0,26.8,21.0,80,60,48,0.00,40.00,11,8,0,0.00
2013-11-15,49.0,41.4,37.0,36.0,33.2,30.0,90,72,60,0.00,40.00,8,5,0,0.00
2013-11-16,50.0,40.9,37.0,47.0,33.6,-99.9,94,86,84,0.00,40.00,21,10,0,0.07
2013-11-17,51.0,49.1,47.0,50.0,47.4,44.0,95,94,90,0.00,40.00,17,9,0,0.18
2013-11-18,41.0,36.6,34.0,32.0,25.6,20.0,70,63,55,0.00,40.00,20,18,0,0.00
2013-11-19,35.0,33.0,30.0,27.0,23.0,18.0,77,68,49,0.00,40.00,5,4,0,0.00
2013-11-20,40.0,39.0,37.0,32.0,31.3,30.0,76,73,69,0.00,40.00,14,9,0,0.01
2013-11-21,40.0,38.4,37.0,35.0,34.8,34.0,92,87,84,0.00,40.00,7,5,0,0.02
2013-11-22,33.0,29.9,28.0,31.0,21.6,12.0,90,71,46,0.00,40.00,15,10,0,0.00
2013-11-23,27.0,17.7,14.0,13.0,-0.7,-99.9,59,49,42,0.00,40.00,18,15,0,0.00
2013-11-24,23.0,17.4,14.0,5.0,3.1,0.0,66,53,42,0.00,40.00,15,10,0,0.00
2013-11-25,33.0,29.0,25.0,24.0,16.6,6.0,73,60,40,0.00,40.00,17,14,0,0.00
2013-11-26,34.0,25.9,16.0,26.0,15.3,4.0,91,65,50,0.00,40.00,13,10,0,0.00
2013-11-27,25.0,21.0,16.0,16.0,11.5,7.0,83,67,50,0.00,40.00,12,8,0,0.00
2013-11-28,25.0,22.6,20.0,20.0,17.6,14.0,89,81,71,0.00,40.00,13,6,0,0.00
2013-11-29,30.0,24.8,21.0,22.0,18.5,16.0,90,77,65,0.00,40.00,9,5,0,0.00
2013-11-30,36.0,31.5,31.0,25.0,18.8,-99.9,78,66,64,0.00,40.00,12,6,0,0.00
2013-12-1,36.0,32.6,30.0,28.0,26.6,24.0,84,78,70,0.00,40.00,6,3,0,0.00
2013-12-2,38.0,32.1,29.0,27.0,23.0,19.0,83,70,47,0.00,40.00,4,2,0,0.00
2013-12-3,36.0,32.6,31.0,30.0,27.4,24.0,96,82,68,0.00,40.00,11,9,0,0.01
2013-12-4,43.0,36.9,32.0,42.0,35.7,31.0,96,95,95,0.00,40.00,11,8,0,0.18
2013-12-5,43.0,25.1,14.0,40.0,16.5,3.0,90,69,58,0.00,40.00,18,16,0,0.00
2013-12-6,15.0,11.0,8.0,4.0,2.9,2.0,79,69,55,0.00,40.00,12,11,0,0.00
2013-12-7,12.0,8.2,6.0,3.0,-3.6,-99.9,83,67,55,0.00,40.00,12,11,0,0.00
2013-12-8,22.0,10.0,3.0,20.0,4.9,-3.0,91,79,66,0.00,40.00,9,6,0,0.00
2013-12-9,23.0,15.4,2.0,21.0,9.1,-7.0,93,76,60,0.00,40.00,19,11,0,0.00
2013-12-10,11.0,4.9,0.0,0.0,-2.7,-7.0,76,70,59,0.00,40.00,14,11,0,0.00
2013-12-11,7.0,5.4,4.0,-1.0,-2.0,-3.0,75,70,62,0.00,40.00,14,13,0,0.00
2013-12-12,16.0,12.0,7.0,5.0,2.2,-1.0,70,65,61,0.00,40.00,12,11,0,0.00
2013-12-13,16.0,14.4,13.0,9.0,4.0,2.0,76,63,57,0.00,40.00,12,7,0,0.00
2013-12-14,22.0,18.5,16.0,19.0,10.2,-99.9,92,80,74,0.00,40.00,10,6,0,0.00
2013-12-15,19.0,13.8,10.0,18.0,6.5,1.0,92,72,54,0.00,40.00,17,13,0,0.00
2013-12-16,20.0,11.8,6.0,10.0,6.5,2.0,87,79,63,0.00,40.00,11,6,0,0.00
2013-12-17,25.0,17.1,12.0,20.0,12.9,8.0,87,82,73,0.00,40.00,9,6,0,0.00
2013-12-18,29.0,19.6,10.0,21.0,11.2,4.0,75,69,61,0.00,40.00,9,6,0,0.00
2013-12-19,26.0,21.9,17.0,20.0,15.7,12.0,83,77,69,0.00,40.00,9,7,0,0.00
2013-12-20,23.0,20.9,19.0,21.0,18.1,16.0,90,87,86,0.00,40.00,9,8,0,0.00
2013-12-21,26.0,23.8,23.0,23.0,17.3,-99.9,94,85,83,0.00,40.00,8,6,0,0.00
2013-12-22,27.0,23.0,20.0,23.0,19.4,15.0,91,86,80,0.00,40.00,12,9,0,0.00
2013-12-23,21.0,18.8,16.0,17.0,13.1,9.0,88,79,63,0.00,40.00,6,5,0,0.00
2013-12-24,16.0,9.9,6.0,6.0,2.4,1.0,83,71,50,0.00,40.00,7,4,0,0.00
2013-12-25,17.0,14.9,13.0,13.0,9.9,7.0,87,80,74,0.00,40.00,12,9,0,0.00
2013-12-26,16.0,12.5,7.0,13.0,6.6,2.0,87,76,67,0.00,40.00,8,5,0,0.00
2013-12-27,32.0,20.7,11.0,26.0,15.1,5.0,85,78,74,0.00,40.00,13,6,0,0.00
2013-12-28,37.0,29.3,25.0,29.0,21.0,-99.9,95,80,74,0.00,40.00,7,4,0,0.02
2013-12-29,28.0,16.9,4.0,27.0,9.0,-8.0,95,70,54,0.00,40.00,14,11,0,0.00
2013-12-30,1.0,-2.8,-9.0,-8.0,-11.1,-14.0,74,66,58,0.00,40.00,12,9,0,0.00
2013-12-31,4.0,-0.8,-5.0,-9.0,-10.9,-12.0,71,61,53,0.00,40.00,12,10,0,0.00
2014-1-1,9.0,2.5,-5.0,-1.0,-6.4,-14.0,71,65,58,0.00,40.00,10,7,0,0.00
2014-1-2,12.0,6.8,3.0,-1.0,-2.9,-7.0,76,64,51,0.00,40.00,9,8,0,0.00